createdAt,value
2019-03-31T00:00:40.366Z,99801.47
2019-03-31T00:03:12.065Z,99795.57
2019-03-31T00:05:43.925Z,99789.61
2019-03-31T00:08:15.647Z,99790.13
2019-03-31T00:10:47.407Z,99793.52
2019-03-31T00:13:19.164Z,99789.30
2019-03-31T00:15:50.913Z,99792.39
2019-03-31T00:18:22.650Z,99784.21
2019-03-31T00:20:54.678Z,99784.62
2019-03-31T00:23:26.397Z,99785.24
2019-03-31T00:25:58.128Z,99777.32
2019-03-31T00:28:29.865Z,99767.53
2019-03-31T00:31:01.586Z,99757.66
2019-03-31T00:33:33.563Z,99759.02
2019-03-31T00:36:05.967Z,99756.23
2019-03-31T00:38:37.720Z,99749.37
2019-03-31T00:41:09.457Z,99757.45
2019-03-31T00:43:41.173Z,99759.30
2019-03-31T00:46:12.903Z,99756.87
2019-03-31T00:48:45.852Z,99756.03
2019-03-31T00:51:17.591Z,99756.23
2019-03-31T00:53:49.322Z,99756.14
2019-03-31T00:56:21.136Z,99757.83
2019-03-31T00:58:52.889Z,99758.38
2019-03-31T01:01:36.757Z,99751.25
2019-03-31T01:04:08.615Z,99749.21
2019-03-31T01:06:40.428Z,99750.97
2019-03-31T01:09:40.087Z,99740.91
2019-03-31T01:12:11.824Z,99739.51
2019-03-31T01:14:44.029Z,99738.62
2019-03-31T01:17:18.899Z,99746.12
2019-03-31T01:19:49.570Z,99742.69
2019-03-31T01:22:21.305Z,99729.70
2019-03-31T01:24:53.082Z,99734.48
2019-03-31T01:27:25.589Z,99726.90
2019-03-31T01:29:57.336Z,99724.09
2019-03-31T01:32:29.733Z,99724.38
2019-03-31T01:35:01.481Z,99719.66
2019-03-31T01:37:33.264Z,99716.44
2019-03-31T01:40:07.030Z,99714.05
2019-03-31T01:42:38.842Z,99708.66
2019-03-31T01:45:10.683Z,99709.63
2019-03-31T01:47:42.486Z,99711.02
2019-03-31T01:50:14.431Z,99698.83
2019-03-31T01:52:46.204Z,99700.62
2019-03-31T01:55:17.935Z,99695.25
2019-03-31T01:57:49.646Z,99690.03
2019-03-31T02:00:45.453Z,99689.39
2019-03-31T02:03:17.233Z,99688.92
2019-03-31T02:05:49.006Z,99691.17
2019-03-31T02:08:20.719Z,99688.06
2019-03-31T02:10:52.515Z,99683.16
2019-03-31T02:13:24.237Z,99678.80
2019-03-31T02:15:56.020Z,99681.73
2019-03-31T02:18:27.762Z,99675.23
2019-03-31T02:20:59.961Z,99677.38
2019-03-31T02:23:31.698Z,99671.05
2019-03-31T02:26:03.423Z,99676.81
2019-03-31T02:28:35.134Z,99670.20
2019-03-31T02:31:07.268Z,99671.08
2019-03-31T02:33:39.040Z,99674.38
2019-03-31T02:36:10.836Z,99662.09
2019-03-31T02:38:42.572Z,99658.42
2019-03-31T02:41:14.511Z,99653.73
2019-03-31T02:43:46.250Z,99657.35
2019-03-31T02:46:18.037Z,99652.80
2019-03-31T02:48:49.792Z,99653.77
2019-03-31T02:51:21.555Z,99654.68
2019-03-31T02:53:53.288Z,99653.36
2019-03-31T02:56:26.258Z,99651.98
2019-03-31T02:58:57.984Z,99648.55
2019-03-31T03:01:29.716Z,99645.00
2019-03-31T03:04:02.437Z,99645.30
2019-03-31T03:06:34.302Z,99638.77
2019-03-31T03:09:07.042Z,99638.35
2019-03-31T03:11:38.765Z,99632.61
2019-03-31T03:14:10.495Z,99631.28
2019-03-31T03:16:42.218Z,99626.59
2019-03-31T03:19:13.941Z,99622.70
2019-03-31T03:21:45.664Z,99610.88
2019-03-31T03:24:17.459Z,99606.36
2019-03-31T03:26:49.211Z,99613.69
2019-03-31T03:29:21.433Z,99610.98
2019-03-31T03:31:53.167Z,99605.98
2019-03-31T03:34:24.897Z,99611.41
2019-03-31T03:36:56.623Z,99610.59
2019-03-31T03:39:28.734Z,99607.42
2019-03-31T03:42:00.486Z,99605.91
2019-03-31T03:44:32.238Z,99594.95
2019-03-31T03:47:03.971Z,99597.73
2019-03-31T03:49:35.705Z,99592.52
2019-03-31T03:52:07.430Z,99591.09
2019-03-31T03:54:39.169Z,99588.86
2019-03-31T03:57:10.900Z,99587.64
2019-03-31T03:59:42.734Z,99586.59
2019-03-31T04:02:14.472Z,99593.00
2019-03-31T04:04:47.454Z,99594.12
2019-03-31T04:07:20.467Z,99585.78
2019-03-31T04:09:52.264Z,99586.52
2019-03-31T04:12:23.974Z,99590.39
2019-03-31T04:14:55.731Z,99579.35
2019-03-31T04:17:27.448Z,99585.09
2019-03-31T04:19:59.186Z,99583.52
2019-03-31T04:22:30.925Z,99579.05
2019-03-31T04:25:02.811Z,99577.09
2019-03-31T04:27:34.559Z,99572.58
2019-03-31T04:30:06.327Z,99567.40
2019-03-31T04:32:38.881Z,99567.17
2019-03-31T04:35:12.277Z,99567.09
2019-03-31T04:37:44.051Z,99562.02
2019-03-31T04:40:16.989Z,99563.67
2019-03-31T04:42:48.756Z,99565.12
2019-03-31T04:45:20.548Z,99560.23
2019-03-31T04:47:52.274Z,99561.05
2019-03-31T04:50:24.599Z,99558.58
2019-03-31T04:52:56.318Z,99554.36
2019-03-31T04:55:28.104Z,99556.72
2019-03-31T04:57:59.834Z,99556.20
2019-03-31T05:00:31.668Z,99550.98
2019-03-31T05:03:03.718Z,99547.48
2019-03-31T05:05:35.495Z,99549.01
2019-03-31T05:08:07.268Z,99553.14
2019-03-31T05:10:39.065Z,99550.40
2019-03-31T05:13:10.831Z,99550.69
2019-03-31T05:15:42.552Z,99548.63
2019-03-31T05:18:14.340Z,99547.00
2019-03-31T05:20:46.115Z,99544.84
2019-03-31T05:23:18.056Z,99554.53
2019-03-31T05:25:50.170Z,99548.33
2019-03-31T05:28:21.906Z,99549.08
2019-03-31T05:30:53.665Z,99548.27
2019-03-31T05:33:25.396Z,99556.67
2019-03-31T05:35:57.220Z,99553.17
2019-03-31T05:38:28.995Z,99549.48
2019-03-31T05:41:02.031Z,99552.59
2019-03-31T05:43:33.806Z,99549.66
2019-03-31T05:46:05.549Z,99545.13
2019-03-31T05:48:37.535Z,99554.20
2019-03-31T05:51:09.275Z,99549.95
2019-03-31T05:53:41.059Z,99544.20
2019-03-31T05:56:12.808Z,99546.73
2019-03-31T05:58:44.594Z,99548.25
2019-03-31T06:01:16.370Z,99549.28
2019-03-31T06:03:48.118Z,99551.16
2019-03-31T06:06:19.948Z,99557.91
2019-03-31T06:08:51.695Z,99561.55
2019-03-31T06:11:23.596Z,99554.48
2019-03-31T06:13:55.328Z,99553.97
2019-03-31T06:16:27.582Z,99544.63
2019-03-31T06:18:59.829Z,99550.59
2019-03-31T06:21:31.588Z,99557.30
2019-03-31T06:24:03.307Z,99553.81
2019-03-31T06:26:35.085Z,99554.08
2019-03-31T06:29:06.834Z,99556.46
2019-03-31T06:31:39.105Z,99554.09
2019-03-31T06:34:11.010Z,99559.11
2019-03-31T06:36:42.823Z,99561.48
2019-03-31T06:39:14.557Z,99564.20
2019-03-31T06:41:46.432Z,99564.94
2019-03-31T06:44:18.547Z,99570.67
2019-03-31T06:46:50.319Z,99576.77
2019-03-31T06:49:22.029Z,99572.11
2019-03-31T06:51:53.813Z,99574.66
2019-03-31T06:54:26.543Z,99572.03
2019-03-31T06:56:58.712Z,99575.52
2019-03-31T06:59:30.447Z,99578.27
2019-03-31T07:02:03.616Z,99578.73
2019-03-31T07:04:35.563Z,99578.94
2019-03-31T07:07:07.407Z,99582.07
2019-03-31T07:09:39.194Z,99582.72
2019-03-31T07:12:11.299Z,99579.12
2019-03-31T07:14:43.061Z,99581.30
2019-03-31T07:17:15.196Z,99585.54
2019-03-31T07:19:46.980Z,99581.86
2019-03-31T07:22:18.743Z,99588.95
2019-03-31T07:24:50.499Z,99591.58
2019-03-31T07:27:22.267Z,99596.34
2019-03-31T07:29:54.088Z,99591.81
2019-03-31T07:32:25.890Z,99593.92
2019-03-31T07:34:57.667Z,99595.47
2019-03-31T07:37:29.445Z,99596.73
2019-03-31T07:40:02.387Z,99593.81
2019-03-31T07:42:35.310Z,99597.63
2019-03-31T07:45:07.184Z,99591.28
2019-03-31T07:47:38.906Z,99594.48
2019-03-31T07:50:11.007Z,99596.14
2019-03-31T07:52:42.898Z,99600.11
2019-03-31T07:55:14.858Z,99588.98
2019-03-31T07:57:46.712Z,99593.85
2019-03-31T08:00:20.020Z,99594.23
2019-03-31T08:02:53.011Z,99601.81
2019-03-31T08:05:33.026Z,99607.44
2019-03-31T08:07:58.223Z,99600.88
2019-03-31T08:10:29.994Z,99594.12
2019-03-31T08:13:01.715Z,99593.48
2019-03-31T08:15:33.501Z,99603.78
2019-03-31T08:18:05.235Z,99594.81
2019-03-31T08:20:37.055Z,99595.16
2019-03-31T08:23:08.805Z,99595.46
2019-03-31T08:25:40.601Z,99594.03
2019-03-31T08:28:12.329Z,99589.22
2019-03-31T08:30:44.113Z,99593.75
2019-03-31T08:33:15.878Z,99589.23
2019-03-31T08:35:48.037Z,99595.05
2019-03-31T08:38:19.831Z,99593.64
2019-03-31T08:40:51.589Z,99589.09
2019-03-31T08:43:23.360Z,99588.72
2019-03-31T08:45:55.339Z,99584.86
2019-03-31T08:48:27.157Z,99587.54
2019-03-31T08:50:59.369Z,99582.11
2019-03-31T08:53:31.167Z,99586.48
2019-03-31T08:56:03.320Z,99580.87
2019-03-31T08:58:35.088Z,99580.35
2019-03-31T09:01:11.489Z,99582.42
2019-03-31T09:03:43.230Z,99587.77
2019-03-31T09:06:15.625Z,99581.23
2019-03-31T09:08:47.777Z,99570.64
2019-03-31T09:11:19.545Z,99585.28
2019-03-31T09:13:51.803Z,99578.68
2019-03-31T09:16:23.603Z,99580.63
2019-03-31T09:18:55.328Z,99582.84
2019-03-31T09:21:27.101Z,99574.77
2019-03-31T09:23:58.863Z,99573.80
2019-03-31T09:26:30.663Z,99572.40
2019-03-31T09:29:04.149Z,99573.70
2019-03-31T09:31:35.915Z,99575.30
2019-03-31T09:34:07.729Z,99578.21
2019-03-31T09:36:39.553Z,99572.85
2019-03-31T09:39:11.481Z,99575.73
2019-03-31T09:41:43.202Z,99575.84
2019-03-31T09:44:15.016Z,99570.53
2019-03-31T09:46:46.766Z,99572.83
2019-03-31T09:49:18.577Z,99569.60
2019-03-31T09:51:50.928Z,99572.35
2019-03-31T09:54:22.694Z,99569.22
2019-03-31T09:56:54.929Z,99572.72
2019-03-31T09:59:26.785Z,99574.20
2019-03-31T10:01:58.508Z,99579.09
2019-03-31T10:04:30.607Z,99578.36
2019-03-31T10:07:03.352Z,99570.46
2019-03-31T10:09:35.355Z,99573.77
2019-03-31T10:12:07.070Z,99577.75
2019-03-31T10:14:38.890Z,99581.57
2019-03-31T10:17:10.617Z,99578.20
2019-03-31T10:19:42.450Z,99580.48
2019-03-31T10:22:14.191Z,99580.53
2019-03-31T10:24:46.364Z,99572.22
2019-03-31T10:27:18.104Z,99566.38
2019-03-31T10:29:49.877Z,99570.88
2019-03-31T10:32:21.612Z,99574.84
2019-03-31T10:34:53.400Z,99568.75
2019-03-31T10:37:25.125Z,99564.55
2019-03-31T10:39:56.898Z,99567.52
2019-03-31T10:42:28.635Z,99563.85
2019-03-31T10:45:00.452Z,99560.95
2019-03-31T10:47:32.551Z,99558.25
2019-03-31T10:50:04.388Z,99550.66
2019-03-31T10:52:36.116Z,99547.12
2019-03-31T10:55:09.510Z,99552.40
2019-03-31T10:57:41.271Z,99545.92
2019-03-31T11:00:12.974Z,99546.07
2019-03-31T11:02:44.697Z,99537.64
2019-03-31T11:05:16.434Z,99531.28
2019-03-31T11:07:48.188Z,99537.39
2019-03-31T11:10:19.917Z,99528.81
2019-03-31T11:12:51.760Z,99522.39
2019-03-31T11:15:23.485Z,99522.47
2019-03-31T11:17:55.211Z,99522.64
2019-03-31T11:20:27.330Z,99519.49
2019-03-31T11:23:18.854Z,99509.80
2019-03-31T11:25:50.605Z,99506.98
2019-03-31T11:28:22.366Z,99493.80
2019-03-31T11:30:54.132Z,99499.70
2019-03-31T11:33:25.854Z,99494.73
2019-03-31T11:35:57.628Z,99494.34
2019-03-31T11:38:29.327Z,99490.02
2019-03-31T11:41:02.288Z,99486.07
2019-03-31T11:43:34.000Z,99485.83
2019-03-31T11:46:05.793Z,99479.46
2019-03-31T11:48:38.743Z,99478.84
2019-03-31T11:51:10.501Z,99474.30
2019-03-31T11:53:42.257Z,99469.69
2019-03-31T11:56:13.990Z,99471.47
2019-03-31T11:58:45.746Z,99468.50
2019-03-31T12:01:17.603Z,99466.41
2019-03-31T12:03:49.317Z,99466.58
2019-03-31T12:06:21.093Z,99466.98
2019-03-31T12:08:52.833Z,99465.25
2019-03-31T12:11:24.573Z,99454.31
2019-03-31T12:13:56.301Z,99446.19
2019-03-31T12:16:28.031Z,99446.81
2019-03-31T12:18:59.892Z,99436.36
2019-03-31T12:21:31.616Z,99435.69
2019-03-31T12:24:03.400Z,99432.09
2019-03-31T12:26:35.123Z,99426.58
2019-03-31T12:29:06.854Z,99422.61
2019-03-31T12:31:38.590Z,99420.05
2019-03-31T12:34:10.327Z,99416.72
2019-03-31T12:36:42.057Z,99411.09
2019-03-31T12:39:13.774Z,99410.34
2019-03-31T12:41:45.585Z,99409.06
2019-03-31T12:44:17.703Z,99409.22
2019-03-31T12:46:49.468Z,99401.17
2019-03-31T12:49:21.208Z,99404.13
2019-03-31T12:51:55.079Z,99394.27
2019-03-31T12:54:26.607Z,99388.72
2019-03-31T12:56:58.323Z,99388.58
2019-03-31T12:59:31.058Z,99389.19
2019-03-31T13:02:04.424Z,99386.37
2019-03-31T13:04:36.162Z,99380.61
2019-03-31T13:07:07.905Z,99377.14
2019-03-31T13:09:39.612Z,99375.13
2019-03-31T13:12:11.339Z,99366.86
2019-03-31T13:14:43.072Z,99363.95
2019-03-31T13:17:14.884Z,99361.05
2019-03-31T13:19:46.740Z,99355.67
2019-03-31T13:22:18.466Z,99353.64
2019-03-31T13:24:50.668Z,99356.16
2019-03-31T13:27:22.392Z,99351.59
2019-03-31T13:29:54.141Z,99349.61
2019-03-31T13:32:26.113Z,99339.95
2019-03-31T13:34:58.212Z,99337.84
2019-03-31T13:37:30.112Z,99336.53
2019-03-31T13:40:01.819Z,99333.11
2019-03-31T13:42:34.655Z,99333.92
2019-03-31T13:45:06.785Z,99332.91
2019-03-31T13:47:38.530Z,99326.62
2019-03-31T13:50:10.388Z,99323.11
2019-03-31T13:52:42.110Z,99324.70
2019-03-31T13:55:13.864Z,99317.61
2019-03-31T13:57:47.295Z,99312.80
2019-03-31T14:00:37.859Z,99308.13
2019-03-31T14:03:09.759Z,99307.57
2019-03-31T14:05:41.499Z,99308.72
2019-03-31T14:08:24.960Z,99314.03
2019-03-31T14:10:46.781Z,99305.95
2019-03-31T14:13:19.787Z,99310.11
2019-03-31T14:15:51.545Z,99307.72
2019-03-31T14:18:23.491Z,99301.53
2019-03-31T14:20:55.263Z,99302.20
2019-03-31T14:23:27.012Z,99301.38
2019-03-31T14:25:58.731Z,99300.92
2019-03-31T14:28:30.445Z,99309.67
2019-03-31T14:31:02.229Z,99304.17
2019-03-31T14:33:33.958Z,99305.93
2019-03-31T14:36:05.860Z,99307.08
2019-03-31T14:38:40.469Z,99302.91
2019-03-31T14:41:11.098Z,99301.61
2019-03-31T14:43:42.880Z,99305.99
2019-03-31T14:46:14.675Z,99307.48
2019-03-31T14:48:46.801Z,99298.45
2019-03-31T14:51:19.742Z,99307.67
2019-03-31T14:53:51.484Z,99302.98
2019-03-31T14:56:23.217Z,99298.25
2019-03-31T14:58:55.012Z,99300.70
2019-03-31T15:01:26.751Z,99309.44
2019-03-31T15:03:58.479Z,99304.30
2019-03-31T15:06:30.206Z,99313.33
2019-03-31T15:09:01.921Z,99316.39
2019-03-31T15:11:35.095Z,99306.86
2019-03-31T15:14:06.851Z,99303.80
2019-03-31T15:16:38.606Z,99298.55
2019-03-31T15:19:11.293Z,99290.92
2019-03-31T15:21:44.379Z,99291.39
2019-03-31T15:24:16.333Z,99284.50
2019-03-31T15:26:48.095Z,99279.68
2019-03-31T15:29:19.847Z,99275.33
2019-03-31T15:31:53.246Z,99278.03
2019-03-31T15:34:24.989Z,99284.94
2019-03-31T15:36:56.787Z,99293.88
2019-03-31T15:39:28.515Z,99292.14
2019-03-31T15:42:00.271Z,99308.53
2019-03-31T15:44:33.444Z,99319.27
2019-03-31T15:47:05.253Z,99320.77
2019-03-31T15:49:36.966Z,99325.17
2019-03-31T15:52:09.073Z,99328.52
2019-03-31T15:54:40.850Z,99340.30
2019-03-31T15:57:12.691Z,99340.27
2019-03-31T15:59:50.824Z,99345.77
2019-03-31T16:02:24.095Z,99352.23
2019-03-31T16:04:55.902Z,99362.88
2019-03-31T16:07:27.673Z,99369.88
2019-03-31T16:09:58.909Z,99374.80
2019-03-31T16:12:30.121Z,99380.52
2019-03-31T16:15:02.239Z,99384.55
2019-03-31T16:17:34.204Z,99385.98
2019-03-31T16:20:05.488Z,99386.48
2019-03-31T16:22:36.726Z,99385.98
2019-03-31T16:25:23.991Z,99388.33
2019-03-31T16:27:55.513Z,99389.36
2019-03-31T16:30:26.910Z,99382.59
2019-03-31T16:32:58.106Z,99384.77
2019-03-31T16:35:29.459Z,99388.73
2019-03-31T16:38:00.684Z,99391.41
2019-03-31T16:40:31.947Z,99387.88
2019-03-31T16:43:04.206Z,99385.55
2019-03-31T16:45:35.428Z,99383.44
2019-03-31T16:48:06.636Z,99378.83
2019-03-31T16:50:37.868Z,99377.48
2019-03-31T16:53:09.061Z,99370.25
2019-03-31T16:55:40.303Z,99364.80
2019-03-31T16:58:11.691Z,99362.86
2019-03-31T17:00:43.203Z,99367.72
2019-03-31T17:03:17.951Z,99368.69
2019-03-31T17:05:47.448Z,99370.36
2019-03-31T17:08:18.704Z,99362.55
2019-03-31T17:10:49.930Z,99362.73
2019-03-31T17:13:22.338Z,99364.31
2019-03-31T17:15:53.993Z,99359.12
2019-03-31T17:18:25.393Z,99357.09
2019-03-31T17:20:56.637Z,99360.27
2019-03-31T17:23:28.224Z,99357.80
2019-03-31T17:25:59.434Z,99352.41
2019-03-31T17:28:30.644Z,99353.94
2019-03-31T17:31:01.832Z,99359.73
2019-03-31T17:33:33.085Z,99355.63
2019-03-31T17:36:05.782Z,99360.16
2019-03-31T17:38:37.096Z,99352.78
2019-03-31T17:41:08.311Z,99355.09
2019-03-31T17:43:39.970Z,99354.31
2019-03-31T17:46:11.427Z,99345.98
2019-03-31T17:48:42.625Z,99345.14
2019-03-31T17:51:14.260Z,99339.11
2019-03-31T17:53:45.469Z,99337.89
2019-03-31T17:56:16.679Z,99342.73
2019-03-31T17:58:47.884Z,99338.34
2019-03-31T18:01:19.078Z,99341.44
2019-03-31T18:03:50.331Z,99333.28
2019-03-31T18:06:21.562Z,99332.28
2019-03-31T18:08:52.765Z,99329.96
2019-03-31T18:11:24.064Z,99327.94
2019-03-31T18:13:55.398Z,99323.36
2019-03-31T18:16:26.645Z,99328.16
2019-03-31T18:18:57.853Z,99329.48
2019-03-31T18:21:29.079Z,99327.27
2019-03-31T18:24:00.300Z,99330.14
2019-03-31T18:26:32.016Z,99323.56
2019-03-31T18:29:04.223Z,99323.63
2019-03-31T18:31:35.467Z,99318.88
2019-03-31T18:34:06.747Z,99312.06
2019-03-31T18:36:37.987Z,99312.23
2019-03-31T18:39:09.214Z,99302.87
2019-03-31T18:41:40.926Z,99310.89
2019-03-31T18:44:12.392Z,99312.81
2019-03-31T18:46:43.606Z,99313.26
2019-03-31T18:49:14.842Z,99315.36
2019-03-31T18:51:46.111Z,99316.45
2019-03-31T18:54:45.385Z,99318.27
2019-03-31T18:57:35.435Z,99319.77
2019-03-31T19:00:33.089Z,99322.95
2019-03-31T19:03:22.681Z,99324.84
2019-03-31T19:06:21.840Z,99327.28
2019-03-31T19:09:11.120Z,99334.89
2019-03-31T19:12:10.376Z,99327.66
2019-03-31T19:15:00.358Z,99317.59
2019-03-31T19:17:52.388Z,99329.62
2019-03-31T19:20:48.443Z,99326.25
2019-03-31T19:23:53.704Z,99332.67
2019-03-31T19:26:47.709Z,99337.73
2019-03-31T19:29:27.634Z,99346.61
2019-03-31T19:32:26.550Z,99362.77
2019-03-31T19:35:14.039Z,99360.03
2019-03-31T19:38:04.128Z,99365.31
2019-03-31T19:41:04.681Z,99369.33
2019-03-31T19:43:57.677Z,99374.73
2019-03-31T19:46:50.696Z,99376.84
2019-03-31T19:49:46.692Z,99384.76
2019-03-31T19:52:35.366Z,99398.81
2019-03-31T19:55:15.222Z,99404.65
2019-03-31T19:58:11.511Z,99409.73
2019-03-31T20:01:02.917Z,99401.76
2019-03-31T20:04:05.202Z,99406.28
2019-03-31T20:06:56.276Z,99409.14
2019-03-31T20:09:45.062Z,99419.41
2019-03-31T20:12:33.865Z,99421.52
2019-03-31T20:15:24.055Z,99422.09
2019-03-31T20:18:23.134Z,99424.75
2019-03-31T20:21:07.903Z,99427.19
2019-03-31T20:23:45.645Z,99439.48
2019-03-31T20:26:54.223Z,99443.53
2019-03-31T20:29:38.210Z,99458.94
2019-03-31T20:32:29.351Z,99461.63
2019-03-31T20:35:13.778Z,99466.08
2019-03-31T20:37:54.602Z,99466.31
2019-03-31T20:40:47.532Z,99464.16
2019-03-31T20:43:49.466Z,99460.55
2019-03-31T20:46:20.733Z,99464.02
2019-03-31T20:48:52.235Z,99464.37
2019-03-31T20:51:23.535Z,99458.89
2019-03-31T20:53:54.876Z,99451.36
2019-03-31T20:56:26.232Z,99452.00
2019-03-31T20:58:57.518Z,99459.09
2019-03-31T21:01:28.827Z,99459.83
2019-03-31T21:04:00.173Z,99455.83
2019-03-31T21:06:31.406Z,99452.61
2019-03-31T21:09:02.968Z,99454.91
2019-03-31T21:11:34.347Z,99460.23
2019-03-31T21:14:05.654Z,99458.23
2019-03-31T21:16:36.909Z,99463.91
2019-03-31T21:19:08.183Z,99467.91
2019-03-31T21:21:39.421Z,99463.49
2019-03-31T21:24:10.673Z,99462.65
2019-03-31T21:26:41.869Z,99465.80
2019-03-31T21:29:13.189Z,99453.23
2019-03-31T21:31:44.414Z,99467.65
2019-03-31T21:34:15.793Z,99467.45
2019-03-31T21:36:47.037Z,99467.94
2019-03-31T21:39:19.335Z,99468.89
2019-03-31T21:41:50.532Z,99468.16
2019-03-31T21:44:21.771Z,99465.22
2019-03-31T21:46:55.797Z,99465.73
2019-03-31T21:49:25.982Z,99458.59
2019-03-31T21:51:57.202Z,99459.90
2019-03-31T21:54:28.475Z,99458.39
2019-03-31T21:56:59.787Z,99451.07
2019-03-31T21:59:33.485Z,99451.92
2019-03-31T22:02:03.959Z,99451.07
2019-03-31T22:04:35.707Z,99450.16
2019-03-31T22:07:06.999Z,99450.20
2019-03-31T22:09:38.305Z,99449.86
2019-03-31T22:12:10.009Z,99449.14
2019-03-31T22:14:41.640Z,99449.06
2019-03-31T22:17:12.863Z,99454.74
2019-03-31T22:19:44.081Z,99453.66
2019-03-31T22:22:15.336Z,99450.86
2019-03-31T22:24:46.526Z,99453.52
2019-03-31T22:27:19.145Z,99451.34
2019-03-31T22:29:50.807Z,99459.34
2019-03-31T22:32:22.241Z,99459.92
2019-03-31T22:34:53.623Z,99459.41
2019-03-31T22:37:24.857Z,99465.34
2019-03-31T22:39:56.068Z,99461.49
2019-03-31T22:42:27.312Z,99461.39
2019-03-31T22:44:58.593Z,99461.48
2019-03-31T22:47:29.804Z,99464.77
2019-03-31T22:50:02.047Z,99464.42
2019-03-31T22:52:33.241Z,99471.07
2019-03-31T22:55:04.876Z,99470.09
2019-03-31T22:57:36.119Z,99465.25
2019-03-31T23:00:09.033Z,99469.85
2019-03-31T23:02:41.792Z,99467.42
2019-03-31T23:05:13.015Z,99464.02
2019-03-31T23:07:44.336Z,99467.27
2019-03-31T23:10:15.714Z,99466.16
2019-03-31T23:12:46.938Z,99456.18
2019-03-31T23:15:19.348Z,99454.38
2019-03-31T23:17:50.616Z,99446.63
2019-03-31T23:20:21.844Z,99452.30
2019-03-31T23:22:53.087Z,99458.36
2019-03-31T23:25:24.263Z,99455.94
2019-03-31T23:27:55.499Z,99453.77
2019-03-31T23:30:26.699Z,99455.33
2019-03-31T23:32:57.925Z,99458.73
2019-03-31T23:35:29.121Z,99457.77
2019-03-31T23:38:00.356Z,99454.24
2019-03-31T23:40:32.654Z,99451.58
2019-03-31T23:43:03.902Z,99447.12
2019-03-31T23:45:35.414Z,99442.41
2019-03-31T23:48:06.720Z,99446.64
2019-03-31T23:50:37.904Z,99449.36
2019-03-31T23:53:09.170Z,99452.48
2019-03-31T23:55:40.361Z,99445.59
2019-03-31T23:58:11.627Z,99455.23
